Time;durP1;ratioP1;P1;durP2;ratioP2;P2;SDS_P1;SDS_P2;PMS_P1;PMS_P2;Temp;Humidity;BMP_temperature;BMP_pressure;BME280_temperature;BME280_humidity;BME280_pressure;Samples;Min_cycle;Max_cycle;Signal;HPM_P1;HPM_P2
2021/03/04 00:00:13;;;;;;;26.73;10.70;;;6.90;99.90;;;;;;5028002;28;20076;-71
2021/03/04 00:02:40;;;;;;;24.48;9.85;;;7.00;99.90;;;;;;5026752;28;20116;-71
2021/03/04 00:05:07;;;;;;;22.85;11.20;;;7.00;99.90;;;;;;5027704;28;20037;-70
2021/03/04 00:07:34;;;;;;;24.33;8.82;;;7.10;99.90;;;;;;5009661;28;20455;-71
2021/03/04 00:10:00;;;;;;;23.30;9.35;;;7.10;99.90;;;;;;5026939;28;20041;-71
2021/03/04 00:12:26;;;;;;;19.80;9.05;;;7.10;99.90;;;;;;5027437;28;20544;-72
2021/03/04 00:14:51;;;;;;;20.25;9.68;;;7.10;99.90;;;;;;5026909;28;20056;-71
2021/03/04 00:17:17;;;;;;;21.42;9.13;;;7.10;99.90;;;;;;5026446;28;20037;-71
2021/03/04 00:19:43;;;;;;;20.75;8.82;;;7.10;99.90;;;;;;5027244;28;20488;-71
2021/03/04 00:22:09;;;;;;;23.02;9.48;;;7.10;99.90;;;;;;5026032;28;20107;-71
2021/03/04 00:24:34;;;;;;;18.90;7.63;;;7.10;99.90;;;;;;5027295;28;20061;-71
2021/03/04 00:27:00;;;;;;;20.98;7.55;;;7.10;99.90;;;;;;5026094;28;20067;-71
2021/03/04 00:29:29;;;;;;;21.25;7.20;;;7.10;99.90;;;;;;5027727;28;20703;-71
2021/03/04 00:31:54;;;;;;;19.38;7.95;;;7.10;99.90;;;;;;5027057;28;20038;-71
2021/03/04 00:34:20;;;;;;;19.52;8.70;;;7.10;99.90;;;;;;5026721;28;20052;-71
2021/03/04 00:36:46;;;;;;;19.83;7.95;;;7.10;99.90;;;;;;5026997;28;20038;-71
2021/03/04 00:39:11;;;;;;;21.92;8.88;;;7.10;99.90;;;;;;5026422;28;20037;-71
2021/03/04 00:41:38;;;;;;;19.15;8.77;;;7.10;99.90;;;;;;5026457;28;20071;-71
2021/03/04 00:44:05;;;;;;;21.88;10.10;;;7.10;99.90;;;;;;5026217;28;20479;-71
2021/03/04 00:46:31;;;;;;;20.77;9.55;;;7.10;99.90;;;;;;5026633;28;20030;-71
2021/03/04 00:48:57;;;;;;;21.80;9.45;;;7.00;99.90;;;;;;5025432;28;20033;-71
2021/03/04 00:51:22;;;;;;;20.55;8.90;;;7.00;99.90;;;;;;5025974;28;20025;-71
2021/03/04 00:53:48;;;;;;;22.55;9.52;;;7.00;99.90;;;;;;5025690;28;20112;-71
2021/03/04 00:56:13;;;;;;;19.15;9.68;;;7.00;99.90;;;;;;5025850;28;20142;-72
2021/03/04 00:58:39;;;;;;;19.45;10.90;;;7.00;99.90;;;;;;5025655;28;20134;-71
2021/03/04 01:01:05;;;;;;;23.17;9.40;;;7.00;99.90;;;;;;5026595;28;20543;-71
2021/03/04 01:03:31;;;;;;;24.17;10.23;;;7.00;99.90;;;;;;5025807;28;20030;-71
2021/03/04 01:05:57;;;;;;;21.92;11.18;;;7.00;99.90;;;;;;5029407;28;20084;-71
2021/03/04 01:08:23;;;;;;;33.28;10.90;;;7.00;99.90;;;;;;5030062;28;20026;-72
2021/03/04 01:10:49;;;;;;;19.90;10.10;;;7.10;99.90;;;;;;5030243;28;20053;-71
2021/03/04 01:13:15;;;;;;;25.00;10.95;;;7.00;99.90;;;;;;5029897;28;20037;-71
2021/03/04 01:15:40;;;;;;;23.60;9.45;;;7.00;99.90;;;;;;5030574;28;20068;-71
2021/03/04 01:18:06;;;;;;;27.15;9.63;;;7.00;99.90;;;;;;5012472;28;20045;-71
2021/03/04 01:20:32;;;;;;;18.20;8.95;;;7.00;99.90;;;;;;5010855;28;20041;-71
2021/03/04 01:22:58;;;;;;;25.58;10.02;;;7.00;99.90;;;;;;5024605;28;20049;-71
2021/03/04 01:25:24;;;;;;;18.88;9.48;;;7.00;99.90;;;;;;5030434;28;20092;-71
2021/03/04 01:27:51;;;;;;;23.88;8.75;;;7.00;99.90;;;;;;5029922;28;20040;-71
2021/03/04 01:30:25;;;;;;;18.45;8.00;;;7.00;99.90;;;;;;5030772;28;20044;-71
2021/03/04 01:32:51;;;;;;;19.42;7.75;;;7.00;99.90;;;;;;5029041;28;20039;-73
2021/03/04 01:35:17;;;;;;;17.45;6.80;;;7.00;99.90;;;;;;5030399;28;20037;-71
2021/03/04 01:37:42;;;;;;;18.08;7.20;;;7.00;99.90;;;;;;5029298;28;20044;-71
2021/03/04 01:40:10;;;;;;;21.60;8.60;;;7.00;99.90;;;;;;5030197;28;20060;-71
2021/03/04 01:42:37;;;;;;;18.90;9.18;;;7.10;99.90;;;;;;5029192;28;20060;-71
2021/03/04 01:45:04;;;;;;;23.17;9.80;;;7.10;99.90;;;;;;5030309;28;20617;-71
2021/03/04 01:47:30;;;;;;;21.85;9.88;;;7.10;99.90;;;;;;5026108;28;20057;-71
2021/03/04 01:49:55;;;;;;;22.55;8.80;;;7.10;99.90;;;;;;5010007;28;20058;-71
2021/03/04 01:52:22;;;;;;;24.30;10.18;;;7.10;99.90;;;;;;5019779;28;20124;-71
2021/03/04 01:54:48;;;;;;;20.52;8.85;;;7.20;99.90;;;;;;5029481;28;20056;-71
2021/03/04 01:57:15;;;;;;;20.42;8.13;;;7.20;99.90;;;;;;5029016;28;20038;-72
2021/03/04 01:59:41;;;;;;;19.35;8.55;;;7.30;99.90;;;;;;5029833;28;20539;-71
2021/03/04 02:02:07;;;;;;;23.42;9.00;;;7.20;99.90;;;;;;5028557;28;20420;-71
2021/03/04 02:04:33;;;;;;;18.08;8.85;;;7.20;99.90;;;;;;5029278;28;20044;-71
2021/03/04 02:07:12;;;;;;;20.05;9.45;;;7.20;99.90;;;;;;5028386;28;20047;-71
2021/03/04 02:09:40;;;;;;;20.77;9.93;;;7.10;99.90;;;;;;5029697;28;20033;-71
2021/03/04 02:12:40;;;;;;;23.63;10.57;;;7.10;99.90;;;;;;5010692;28;20029;-73
2021/03/04 02:15:09;;;;;;;25.35;10.65;;;7.20;99.90;;;;;;5005058;28;20041;-73
2021/03/04 02:17:38;;;;;;;26.25;12.57;;;7.20;99.90;;;;;;5028887;28;20037;-73
2021/03/04 02:20:07;;;;;;;24.88;10.90;;;7.20;99.90;;;;;;5029147;28;20037;-73
2021/03/04 02:23:00;;;;;;;26.80;10.25;;;7.20;99.90;;;;;;5027753;28;20577;-73
2021/03/04 02:26:07;;;;;;;25.35;11.15;;;7.10;99.90;;;;;;5028698;28;20587;-73
2021/03/04 02:28:34;;;;;;;22.40;9.32;;;7.20;99.90;;;;;;4950326;28;20496;-73
2021/03/04 02:31:04;;;;;;;27.20;9.88;;;7.20;99.90;;;;;;4967535;28;20109;-73
2021/03/04 02:33:31;;;;;;;19.75;9.15;;;7.20;99.90;;;;;;4981629;28;20056;-73
2021/03/04 02:35:59;;;;;;;19.80;8.75;;;7.20;99.90;;;;;;5009254;28;20824;-73
2021/03/04 02:38:26;;;;;;;17.77;7.78;;;7.10;99.90;;;;;;5024222;28;20036;-71
2021/03/04 02:40:53;;;;;;;21.55;9.05;;;7.10;99.90;;;;;;5029258;28;20544;-73
2021/03/04 02:43:23;;;;;;;17.25;8.30;;;7.10;99.90;;;;;;5028469;28;20511;-73
2021/03/04 02:45:50;;;;;;;17.02;8.10;;;7.10;99.90;;;;;;5028258;28;20029;-71
2021/03/04 02:48:18;;;;;;;29.65;9.25;;;7.10;99.90;;;;;;5028849;28;20018;-71
2021/03/04 02:50:47;;;;;;;21.98;9.07;;;7.10;99.90;;;;;;5029287;28;20044;-73
2021/03/04 02:53:13;;;;;;;25.95;9.40;;;7.10;99.90;;;;;;5028370;28;20033;-73
2021/03/04 02:55:39;;;;;;;15.80;7.65;;;7.10;99.90;;;;;;5028499;28;20697;-73
2021/03/04 02:58:07;;;;;;;29.83;9.68;;;7.10;99.90;;;;;;5028532;28;20037;-73
2021/03/04 03:00:34;;;;;;;20.00;8.18;;;7.10;99.90;;;;;;5009671;28;20041;-73
2021/03/04 03:03:02;;;;;;;24.23;8.95;;;7.10;99.90;;;;;;5028050;28;20029;-73
2021/03/04 03:05:31;;;;;;;19.33;8.88;;;7.10;99.90;;;;;;5027895;28;20037;-73
2021/03/04 03:07:58;;;;;;;18.23;8.93;;;7.10;99.90;;;;;;5028136;28;20026;-71
2021/03/04 03:10:26;;;;;;;19.90;9.07;;;7.10;99.90;;;;;;5027453;28;20064;-73
2021/03/04 03:12:56;;;;;;;18.67;8.27;;;7.10;99.90;;;;;;5028079;28;20040;-71
2021/03/04 03:15:23;;;;;;;20.02;8.68;;;7.10;99.90;;;;;;5026838;28;20053;-73
2021/03/04 03:17:49;;;;;;;22.77;9.05;;;7.00;99.90;;;;;;5027208;28;20041;-73
2021/03/04 03:20:18;;;;;;;23.52;9.75;;;6.90;99.90;;;;;;5027951;28;20080;-73
2021/03/04 03:22:45;;;;;;;21.70;9.30;;;7.00;99.90;;;;;;5027828;28;20125;-73
2021/03/04 03:25:12;;;;;;;26.42;9.73;;;6.90;99.90;;;;;;5027943;28;20037;-73
2021/03/04 03:27:40;;;;;;;27.10;10.90;;;7.00;99.90;;;;;;5026839;28;20037;-73
2021/03/04 03:30:09;;;;;;;24.80;9.95;;;7.00;99.90;;;;;;5028121;28;20618;-73
2021/03/04 03:32:37;;;;;;;24.77;10.23;;;7.00;99.90;;;;;;5026761;28;20030;-73
2021/03/04 03:35:05;;;;;;;25.50;10.82;;;7.00;99.90;;;;;;5027893;28;20033;-73
2021/03/04 03:37:31;;;;;;;27.10;9.98;;;7.00;99.90;;;;;;5018549;28;20057;-73
2021/03/04 03:39:57;;;;;;;23.92;9.85;;;7.00;99.90;;;;;;5008092;28;20469;-73
2021/03/04 03:42:23;;;;;;;20.80;10.05;;;7.10;99.90;;;;;;5013100;28;20120;-73
2021/03/04 03:44:50;;;;;;;24.98;9.63;;;7.10;99.90;;;;;;5028014;28;20409;-71
2021/03/04 03:47:17;;;;;;;17.45;8.13;;;7.00;99.90;;;;;;5014890;28;20037;-71
2021/03/04 03:49:44;;;;;;;19.80;8.73;;;7.00;99.90;;;;;;5007657;28;20049;-73
2021/03/04 03:52:10;;;;;;;20.48;9.20;;;6.90;99.90;;;;;;5016440;28;20025;-73
2021/03/04 03:54:37;;;;;;;19.75;9.18;;;6.90;99.90;;;;;;5027086;28;20037;-73
2021/03/04 03:57:04;;;;;;;21.92;8.65;;;6.90;99.90;;;;;;5027060;28;20040;-73
2021/03/04 03:59:31;;;;;;;21.15;7.35;;;6.80;99.90;;;;;;5027503;28;20069;-75
2021/03/04 04:01:58;;;;;;;23.23;9.05;;;6.80;99.90;;;;;;5026547;28;20082;-73
2021/03/04 04:04:25;;;;;;;19.30;8.55;;;6.90;99.90;;;;;;5026877;28;20038;-73
2021/03/04 04:06:52;;;;;;;20.55;8.38;;;6.90;99.90;;;;;;5026362;28;20031;-73
2021/03/04 04:09:18;;;;;;;17.65;7.53;;;6.90;99.90;;;;;;5027591;28;20048;-73
2021/03/04 04:11:44;;;;;;;18.88;8.07;;;6.90;99.90;;;;;;5027405;28;20037;-73
2021/03/04 04:14:09;;;;;;;24.70;8.88;;;6.90;99.90;;;;;;5027379;28;20056;-73
2021/03/04 04:16:35;;;;;;;21.33;6.85;;;6.90;99.90;;;;;;5026360;28;20050;-73
2021/03/04 04:19:02;;;;;;;15.60;6.70;;;6.90;99.90;;;;;;5027318;28;20071;-73
2021/03/04 04:21:28;;;;;;;19.17;7.55;;;6.90;99.90;;;;;;5025934;28;20066;-71
2021/03/04 04:23:54;;;;;;;20.98;8.63;;;6.90;99.90;;;;;;5027389;28;20041;-71
2021/03/04 04:26:20;;;;;;;21.90;8.68;;;6.90;99.90;;;;;;5026452;28;20420;-73
2021/03/04 04:28:46;;;;;;;20.50;8.93;;;6.90;99.90;;;;;;5026528;28;20022;-73
2021/03/04 04:31:12;;;;;;;22.45;8.90;;;6.80;99.90;;;;;;5026656;28;20033;-73
2021/03/04 04:33:38;;;;;;;31.73;9.20;;;6.90;99.90;;;;;;5025575;28;20091;-73
2021/03/04 04:36:05;;;;;;;19.52;8.30;;;6.90;99.90;;;;;;5026614;28;20457;-73
2021/03/04 04:38:31;;;;;;;25.42;8.15;;;6.80;99.90;;;;;;5026053;28;20029;-73
2021/03/04 04:40:57;;;;;;;24.40;8.30;;;6.80;99.90;;;;;;5026828;28;20037;-73
2021/03/04 04:43:22;;;;;;;21.05;7.80;;;6.80;99.90;;;;;;5026537;28;20444;-73
2021/03/04 04:45:48;;;;;;;18.35;7.88;;;6.80;99.90;;;;;;5026225;28;20033;-73
2021/03/04 04:48:14;;;;;;;19.40;6.60;;;6.90;99.90;;;;;;5025376;28;20550;-73
2021/03/04 04:50:39;;;;;;;21.90;8.73;;;6.90;99.90;;;;;;5026174;28;20044;-73
2021/03/04 04:53:05;;;;;;;24.75;8.82;;;7.00;99.90;;;;;;5025223;28;20033;-73
2021/03/04 04:55:31;;;;;;;17.77;7.43;;;7.00;99.90;;;;;;5026187;28;20116;-73
2021/03/04 04:57:57;;;;;;;16.48;7.05;;;7.00;99.90;;;;;;5025899;28;20048;-73
2021/03/04 05:00:23;;;;;;;20.48;7.15;;;7.00;99.90;;;;;;5027127;28;20376;-73
2021/03/04 05:02:49;;;;;;;18.23;7.10;;;7.00;99.90;;;;;;5026282;28;20060;-73
2021/03/04 05:05:15;;;;;;;24.10;8.55;;;6.90;99.90;;;;;;5025464;28;20045;-73
2021/03/04 05:07:40;;;;;;;19.75;8.13;;;6.90;99.90;;;;;;5008560;28;20029;-73
2021/03/04 05:10:08;;;;;;;22.83;7.95;;;6.80;99.90;;;;;;5025438;28;20041;-73
2021/03/04 05:12:35;;;;;;;17.90;8.70;;;6.80;99.90;;;;;;5025980;28;20048;-73
2021/03/04 05:15:03;;;;;;;22.00;7.95;;;6.80;99.90;;;;;;5026181;28;20107;-70
2021/03/04 05:17:28;;;;;;;23.83;9.70;;;6.90;99.90;;;;;;5025991;28;20056;-73
2021/03/04 05:19:54;;;;;;;24.10;9.18;;;6.90;99.90;;;;;;5026664;28;20068;-73
2021/03/04 05:22:19;;;;;;;22.85;8.13;;;6.80;99.90;;;;;;5025634;28;20391;-73
2021/03/04 05:24:45;;;;;;;28.10;8.43;;;6.90;99.90;;;;;;5026285;28;20042;-73
2021/03/04 05:27:11;;;;;;;22.27;8.15;;;6.80;99.90;;;;;;5025417;28;20037;-73
2021/03/04 05:29:36;;;;;;;20.38;7.90;;;6.80;99.90;;;;;;5027036;28;20052;-73
2021/03/04 05:32:02;;;;;;;24.02;8.50;;;6.80;99.90;;;;;;5026917;28;20022;-73
2021/03/04 05:34:28;;;;;;;20.95;8.20;;;6.80;99.90;;;;;;5025245;28;20037;-73
2021/03/04 05:36:54;;;;;;;26.08;7.95;;;6.80;99.90;;;;;;5026171;28;20029;-73
2021/03/04 05:39:19;;;;;;;19.73;7.10;;;6.80;99.90;;;;;;5025238;28;20047;-73
2021/03/04 05:41:45;;;;;;;16.45;7.78;;;6.80;99.90;;;;;;5026326;28;20415;-73
2021/03/04 05:44:13;;;;;;;22.55;8.23;;;6.80;99.90;;;;;;5025436;28;20044;-73
2021/03/04 05:46:40;;;;;;;19.38;7.15;;;6.70;99.90;;;;;;5026252;28;20145;-73
2021/03/04 05:49:08;;;;;;;17.55;7.68;;;6.80;99.90;;;;;;5025723;28;20044;-73
2021/03/04 05:51:39;;;;;;;21.35;7.53;;;6.80;99.90;;;;;;5027278;28;20078;-73
2021/03/04 05:54:06;;;;;;;16.60;7.65;;;6.80;99.90;;;;;;5029591;28;20037;-73
2021/03/04 05:56:34;;;;;;;23.90;8.18;;;6.80;99.90;;;;;;5029005;28;20148;-72
2021/03/04 05:59:01;;;;;;;18.20;8.23;;;6.90;99.90;;;;;;5029930;28;20033;-73
2021/03/04 06:01:28;;;;;;;19.55;8.30;;;6.80;99.90;;;;;;5028290;28;20480;-73
2021/03/04 06:03:54;;;;;;;23.52;8.73;;;6.90;99.90;;;;;;5029700;28;20061;-72
2021/03/04 06:06:20;;;;;;;24.10;9.68;;;6.90;99.90;;;;;;5028713;28;20036;-72
2021/03/04 06:08:45;;;;;;;25.67;9.75;;;6.80;99.90;;;;;;5029854;28;20508;-73
2021/03/04 06:11:11;;;;;;;20.52;9.10;;;6.80;99.90;;;;;;5021142;28;20041;-73
2021/03/04 06:13:37;;;;;;;25.27;8.68;;;6.90;99.90;;;;;;5022582;28;20033;-72
2021/03/04 06:16:03;;;;;;;20.48;8.40;;;6.80;99.90;;;;;;5024709;28;20053;-72
2021/03/04 06:18:42;;;;;;;20.95;8.77;;;6.80;99.90;;;;;;5016886;28;20046;-73
2021/03/04 06:21:21;;;;;;;25.02;8.98;;;6.80;99.90;;;;;;5020756;28;20033;-73
2021/03/04 06:23:47;;;;;;;17.70;8.02;;;6.80;99.90;;;;;;5016930;28;20034;-73
2021/03/04 06:26:36;;;;;;;20.85;8.63;;;6.70;99.90;;;;;;5016617;28;20362;-73
2021/03/04 06:29:19;;;;;;;24.50;9.02;;;6.70;99.90;;;;;;5025884;28;20121;-73
2021/03/04 06:31:59;;;;;;;23.40;9.55;;;6.80;99.90;;;;;;5019464;28;20084;-73
2021/03/04 06:34:25;;;;;;;20.17;8.38;;;6.80;99.90;;;;;;5025740;28;20075;-73
2021/03/04 06:36:56;;;;;;;22.80;8.50;;;6.80;99.90;;;;;;5023861;28;20022;-73
2021/03/04 06:39:22;;;;;;;17.75;7.68;;;6.80;99.90;;;;;;5026127;28;20392;-73
2021/03/04 06:42:03;;;;;;;22.90;8.13;;;6.80;99.90;;;;;;5022944;28;20579;-73
2021/03/04 06:44:44;;;;;;;35.35;9.38;;;6.90;99.90;;;;;;5021233;28;20030;-73
2021/03/04 06:47:11;;;;;;;22.08;9.15;;;6.90;99.90;;;;;;5022801;28;20036;-73
2021/03/04 06:49:42;;;;;;;22.63;8.60;;;6.90;99.90;;;;;;5025237;28;20083;-73
2021/03/04 06:52:09;;;;;;;25.27;8.97;;;6.90;99.90;;;;;;5022172;28;20818;-73
2021/03/04 06:54:36;;;;;;;25.67;8.55;;;6.90;99.90;;;;;;5025848;28;20097;-73
2021/03/04 06:57:12;;;;;;;23.85;8.55;;;6.90;99.90;;;;;;5023378;28;20057;-72
2021/03/04 06:59:45;;;;;;;21.42;9.10;;;6.90;99.90;;;;;;5017730;28;20112;-73
2021/03/04 07:02:23;;;;;;;22.75;8.63;;;6.90;99.90;;;;;;5021656;28;20484;-73
2021/03/04 07:04:53;;;;;;;29.55;9.45;;;6.90;99.90;;;;;;5026198;28;20045;-73
2021/03/04 07:07:22;;;;;;;27.77;9.27;;;6.90;99.90;;;;;;5019446;28;20417;-73
2021/03/04 07:09:49;;;;;;;27.95;10.27;;;6.90;99.90;;;;;;5015435;28;20037;-72
2021/03/04 07:12:17;;;;;;;27.77;9.25;;;7.00;99.90;;;;;;5025132;28;20049;-73
2021/03/04 07:14:44;;;;;;;23.35;9.52;;;7.00;99.90;;;;;;5023341;28;20045;-73
2021/03/04 07:17:10;;;;;;;27.40;9.98;;;7.00;99.90;;;;;;5027144;28;20845;-73
2021/03/04 07:19:37;;;;;;;28.90;10.02;;;7.10;99.90;;;;;;5015083;28;20045;-73
2021/03/04 07:22:04;;;;;;;22.15;9.10;;;7.10;99.90;;;;;;5024207;28;20029;-72
2021/03/04 07:24:30;;;;;;;24.90;9.45;;;7.10;99.90;;;;;;5017676;28;20036;-72
2021/03/04 07:26:56;;;;;;;33.10;10.23;;;7.10;99.90;;;;;;5024325;28;20042;-72
2021/03/04 07:29:22;;;;;;;27.35;9.63;;;7.20;99.90;;;;;;5013851;28;20045;-73
2021/03/04 07:31:49;;;;;;;26.50;10.23;;;7.20;99.90;;;;;;5015590;28;20030;-73
2021/03/04 07:34:17;;;;;;;25.63;10.27;;;7.20;99.90;;;;;;5021326;28;20480;-73
2021/03/04 07:36:47;;;;;;;25.88;10.68;;;7.30;99.90;;;;;;5018545;28;20137;-73
2021/03/04 07:39:13;;;;;;;32.88;9.65;;;7.30;99.90;;;;;;5026792;28;20616;-73
2021/03/04 07:41:41;;;;;;;25.88;9.77;;;7.40;99.90;;;;;;5021366;28;20381;-73
2021/03/04 07:44:08;;;;;;;29.02;9.75;;;7.40;99.90;;;;;;5017251;28;20234;-73
2021/03/04 07:46:36;;;;;;;28.50;10.40;;;7.50;99.90;;;;;;5020020;28;20051;-73
2021/03/04 07:49:06;;;;;;;29.33;10.15;;;7.50;99.90;;;;;;5021960;28;20040;-72
2021/03/04 07:51:42;;;;;;;49.28;11.10;;;7.50;99.90;;;;;;5025664;28;20018;-73
2021/03/04 07:54:08;;;;;;;34.50;10.43;;;7.50;99.90;;;;;;5020415;28;20029;-73
2021/03/04 07:56:34;;;;;;;33.15;10.13;;;7.50;99.90;;;;;;5026053;28;20018;-73
2021/03/04 07:59:13;;;;;;;26.27;10.48;;;7.60;99.90;;;;;;5022732;28;20056;-73
2021/03/04 08:01:54;;;;;;;28.83;10.18;;;7.60;99.90;;;;;;5024789;28;20027;-73
2021/03/04 08:04:24;;;;;;;24.63;9.60;;;7.70;99.90;;;;;;5017925;28;20609;-73
2021/03/04 08:06:50;;;;;;;39.25;13.98;;;7.80;99.90;;;;;;5025205;28;20025;-73
2021/03/04 08:09:33;;;;;;;42.95;17.77;;;7.80;99.90;;;;;;5020368;28;20026;-73
2021/03/04 08:12:13;;;;;;;34.75;13.80;;;7.80;99.90;;;;;;5022176;28;20026;-73
2021/03/04 08:14:41;;;;;;;28.02;11.85;;;7.90;99.90;;;;;;5017600;28;20116;-73
2021/03/04 08:17:08;;;;;;;30.10;9.63;;;8.00;99.90;;;;;;5016630;28;20077;-73
2021/03/04 08:19:35;;;;;;;23.27;8.70;;;8.10;99.90;;;;;;5021479;28;20473;-73
2021/03/04 08:22:08;;;;;;;27.10;8.73;;;8.10;99.90;;;;;;5016579;28;20140;-73
2021/03/04 08:24:38;;;;;;;23.23;8.45;;;8.10;99.90;;;;;;5021065;28;20105;-73
2021/03/04 08:27:08;;;;;;;21.40;8.00;;;8.20;99.90;;;;;;5015426;28;20041;-73
2021/03/04 08:29:34;;;;;;;28.40;8.73;;;8.20;99.90;;;;;;5019308;28;20060;-73
2021/03/04 08:32:02;;;;;;;23.13;9.63;;;8.20;99.90;;;;;;5018831;28;20030;-73
2021/03/04 08:34:38;;;;;;;23.98;9.63;;;8.30;99.90;;;;;;5022654;28;20075;-73
2021/03/04 08:37:18;;;;;;;30.52;10.77;;;8.30;99.90;;;;;;5019489;28;20120;-73
2021/03/04 08:39:44;;;;;;;24.20;9.23;;;8.30;99.90;;;;;;5017671;28;20495;-72
2021/03/04 08:42:10;;;;;;;29.75;8.80;;;8.40;99.90;;;;;;5020862;28;20056;-73
2021/03/04 08:44:36;;;;;;;22.25;9.50;;;8.40;99.90;;;;;;5016945;28;20065;-73
2021/03/04 08:47:01;;;;;;;24.60;8.60;;;8.40;99.90;;;;;;5025039;28;20029;-73
2021/03/04 08:49:27;;;;;;;21.38;9.20;;;8.50;99.90;;;;;;5014084;28;20512;-73
2021/03/04 08:51:55;;;;;;;27.33;8.77;;;8.60;99.90;;;;;;5016431;28;20030;-73
2021/03/04 08:54:29;;;;;;;28.25;9.52;;;8.70;99.90;;;;;;5022723;28;20037;-73
2021/03/04 08:57:02;;;;;;;35.08;9.77;;;8.90;99.90;;;;;;5023855;28;20041;-73
2021/03/04 08:59:29;;;;;;;23.58;9.98;;;9.10;99.90;;;;;;5020204;28;20057;-73
2021/03/04 09:01:56;;;;;;;26.63;8.93;;;9.40;99.90;;;;;;5023039;28;20037;-73
2021/03/04 09:04:26;;;;;;;20.45;8.68;;;9.50;99.90;;;;;;5024869;28;20034;-73
2021/03/04 09:06:52;;;;;;;23.05;8.27;;;9.70;99.90;;;;;;5019967;28;20361;-73
2021/03/04 09:09:29;;;;;;;15.65;7.05;;;10.00;99.90;;;;;;5021869;28;20025;-73
2021/03/04 09:11:56;;;;;;;20.20;7.85;;;10.00;99.90;;;;;;5020827;28;20044;-74
2021/03/04 09:14:40;;;;;;;15.38;7.50;;;10.00;99.90;;;;;;5018644;28;20049;-73
2021/03/04 09:17:08;;;;;;;18.00;6.80;;;10.00;99.90;;;;;;5018335;28;20059;-73
2021/03/04 09:19:38;;;;;;;20.95;7.70;;;10.10;99.90;;;;;;5023115;28;20120;-73
2021/03/04 09:22:13;;;;;;;18.85;6.97;;;10.20;99.90;;;;;;5020377;28;20041;-73
2021/03/04 09:24:39;;;;;;;17.38;5.95;;;10.40;99.90;;;;;;5011563;28;20030;-73
2021/03/04 09:27:07;;;;;;;19.67;6.28;;;10.50;99.90;;;;;;5021963;28;20695;-73
2021/03/04 09:29:37;;;;;;;18.58;7.25;;;10.50;99.70;;;;;;5023966;28;20160;-73
2021/03/04 09:32:03;;;;;;;18.55;5.88;;;10.60;99.90;;;;;;5023129;28;20419;-73
2021/03/04 09:34:38;;;;;;;24.63;6.93;;;10.60;99.90;;;;;;5014781;28;20038;-73
2021/03/04 09:37:10;;;;;;;24.13;7.55;;;10.70;99.90;;;;;;5024663;28;20108;-73
2021/03/04 09:39:41;;;;;;;26.25;8.00;;;11.00;99.90;;;;;;5020308;28;20041;-74
2021/03/04 09:42:07;;;;;;;29.92;9.13;;;11.10;99.90;;;;;;5027399;28;20103;-73
2021/03/04 09:44:48;;;;;;;18.48;8.32;;;11.30;99.50;;;;;;5024321;28;20653;-73
2021/03/04 09:47:46;;;;;;;24.80;8.60;;;11.40;98.40;;;;;;5021866;28;20075;-73
2021/03/04 09:50:30;;;;;;;21.90;6.25;;;11.60;98.40;;;;;;5022502;28;20045;-73
2021/03/04 09:53:04;;;;;;;28.98;9.05;;;11.50;96.40;;;;;;5026373;28;20045;-73
2021/03/04 09:55:40;;;;;;;23.42;8.93;;;11.60;96.40;;;;;;5023081;28;20590;-73
2021/03/04 09:58:22;;;;;;;20.45;7.22;;;11.70;95.90;;;;;;5021549;28;20567;-73
2021/03/04 10:00:59;;;;;;;20.98;6.95;;;11.80;95.40;;;;;;5020414;28;20040;-73
2021/03/04 10:03:40;;;;;;;16.23;6.68;;;11.80;94.30;;;;;;5021304;28;20038;-73
2021/03/04 10:06:06;;;;;;;16.90;6.82;;;12.00;92.90;;;;;;5021864;28;20503;-73
2021/03/04 10:08:39;;;;;;;18.83;6.05;;;12.10;92.40;;;;;;5022043;28;20063;-73
2021/03/04 10:11:05;;;;;;;21.15;7.13;;;12.00;92.70;;;;;;5022634;28;20057;-73
2021/03/04 10:13:32;;;;;;;16.42;5.85;;;11.70;92.20;;;;;;5023438;28;20076;-73
2021/03/04 10:16:18;;;;;;;18.58;6.55;;;11.70;91.50;;;;;;5023674;28;20077;-73
2021/03/04 10:18:48;;;;;;;21.80;6.30;;;11.70;90.90;;;;;;5023383;28;20044;-73
2021/03/04 10:21:16;;;;;;;17.70;6.75;;;11.70;90.90;;;;;;5016043;28;20021;-73
2021/03/04 10:23:45;;;;;;;19.00;6.05;;;11.60;90.80;;;;;;5026852;28;20555;-73
2021/03/04 10:26:10;;;;;;;15.65;6.25;;;11.60;90.50;;;;;;5023809;28;20112;-73
2021/03/04 10:28:36;;;;;;;15.40;6.03;;;11.50;89.00;;;;;;5023684;28;20104;-73
2021/03/04 10:31:01;;;;;;;22.73;8.02;;;11.70;89.60;;;;;;5025433;28;20053;-73
2021/03/04 10:33:28;;;;;;;17.83;5.97;;;11.80;88.70;;;;;;5022250;28;20087;-73
2021/03/04 10:35:53;;;;;;;18.38;6.47;;;11.80;88.60;;;;;;5026454;28;20084;-73
2021/03/04 10:38:19;;;;;;;15.52;5.97;;;11.80;89.60;;;;;;5024077;28;20034;-73
2021/03/04 10:40:45;;;;;;;15.52;6.70;;;11.80;88.10;;;;;;5024684;28;20060;-73
2021/03/04 10:43:10;;;;;;;17.83;6.10;;;11.90;88.00;;;;;;5019450;28;20041;-73
2021/03/04 10:45:36;;;;;;;16.73;5.65;;;12.00;87.30;;;;;;5026601;28;20056;-73
2021/03/04 10:48:02;;;;;;;18.92;6.47;;;12.10;86.90;;;;;;5023667;28;20041;-73
2021/03/04 10:50:27;;;;;;;15.80;6.30;;;12.10;84.70;;;;;;5020738;28;20072;-73
2021/03/04 10:52:53;;;;;;;16.42;6.05;;;12.20;83.90;;;;;;5019193;28;20041;-73
2021/03/04 10:55:19;;;;;;;15.82;6.13;;;12.20;87.30;;;;;;5018252;28;20733;-73
2021/03/04 10:57:45;;;;;;;16.70;6.72;;;12.40;87.10;;;;;;5016087;28;20052;-73
2021/03/04 11:00:12;;;;;;;20.90;7.15;;;12.80;86.20;;;;;;5025058;28;20042;-73
2021/03/04 11:02:38;;;;;;;16.48;6.82;;;13.00;85.60;;;;;;5025812;28;20037;-73
2021/03/04 11:05:06;;;;;;;14.57;5.88;;;13.10;81.20;;;;;;5022672;28;20048;-73
2021/03/04 11:07:32;;;;;;;18.00;6.43;;;12.90;82.00;;;;;;5021116;28;20064;-73
2021/03/04 11:09:58;;;;;;;17.67;6.15;;;12.80;81.10;;;;;;5013399;28;20029;-73
2021/03/04 11:12:23;;;;;;;19.15;6.40;;;12.70;81.10;;;;;;5001449;28;20381;-73
2021/03/04 11:14:49;;;;;;;25.77;6.82;;;12.60;81.40;;;;;;5016711;28;20045;-73
2021/03/04 11:17:15;;;;;;;29.05;7.03;;;12.50;82.30;;;;;;5024033;28;20061;-73
2021/03/04 11:19:42;;;;;;;17.17;6.30;;;12.50;81.60;;;;;;5019558;28;20113;-73
2021/03/04 11:22:08;;;;;;;15.77;5.72;;;12.50;82.40;;;;;;5025619;28;20041;-73
2021/03/04 11:24:35;;;;;;;24.90;7.05;;;12.60;81.90;;;;;;5020156;28;20472;-72
2021/03/04 11:27:00;;;;;;;15.52;5.90;;;12.60;80.30;;;;;;5024836;28;20040;-73
2021/03/04 11:29:27;;;;;;;22.33;6.93;;;12.70;82.20;;;;;;5022867;28;20033;-73
2021/03/04 11:31:53;;;;;;;17.48;6.20;;;12.90;82.50;;;;;;5016100;28;20030;-72
2021/03/04 11:34:18;;;;;;;33.25;7.60;;;13.10;81.40;;;;;;5020596;28;20036;-73
2021/03/04 11:36:44;;;;;;;16.75;6.70;;;13.20;80.80;;;;;;5018472;28;20106;-73
2021/03/04 11:39:09;;;;;;;20.55;6.55;;;13.10;78.20;;;;;;5025707;28;20171;-73
2021/03/04 11:41:35;;;;;;;20.17;6.13;;;13.20;79.50;;;;;;5023931;28;20037;-73
2021/03/04 11:44:01;;;;;;;13.68;6.03;;;13.20;77.80;;;;;;5014867;28;20041;-72
2021/03/04 11:46:27;;;;;;;17.00;6.50;;;13.10;77.90;;;;;;5023835;28;20021;-73
2021/03/04 11:48:53;;;;;;;16.20;6.88;;;13.30;79.60;;;;;;5020210;28;20029;-73
2021/03/04 11:51:20;;;;;;;15.90;5.85;;;13.50;80.50;;;;;;5021288;28;20092;-72
2021/03/04 11:53:45;;;;;;;15.38;5.65;;;13.80;80.40;;;;;;5019121;28;20042;-73
2021/03/04 11:56:11;;;;;;;15.73;6.13;;;14.10;78.30;;;;;;5021262;28;20393;-73
2021/03/04 11:58:37;;;;;;;15.50;5.90;;;14.50;78.00;;;;;;5023434;28;20040;-73
2021/03/04 12:01:04;;;;;;;15.90;6.05;;;14.70;75.40;;;;;;5021544;28;20068;-73
2021/03/04 12:03:29;;;;;;;14.38;5.60;;;15.00;74.20;;;;;;5018756;28;20892;-72
2021/03/04 12:05:56;;;;;;;16.05;5.85;;;15.10;74.40;;;;;;5023882;28;20116;-73
2021/03/04 12:08:21;;;;;;;21.00;5.85;;;15.40;72.60;;;;;;5022378;28;20053;-73
2021/03/04 12:10:47;;;;;;;17.30;5.70;;;15.50;72.20;;;;;;5021093;28;20068;-72
2021/03/04 12:13:13;;;;;;;18.98;7.00;;;14.90;71.30;;;;;;5017177;28;20420;-72
2021/03/04 12:15:41;;;;;;;13.65;5.38;;;14.90;72.10;;;;;;5019879;28;20464;-72
2021/03/04 12:18:07;;;;;;;13.18;5.10;;;14.90;71.70;;;;;;5016579;28;20423;-72
2021/03/04 12:20:33;;;;;;;13.20;5.13;;;15.30;70.20;;;;;;5020339;28;20046;-72
2021/03/04 12:22:59;;;;;;;15.93;5.22;;;15.60;70.40;;;;;;5015907;28;20086;-73
2021/03/04 12:25:26;;;;;;;14.02;4.55;;;15.80;70.00;;;;;;5018392;28;20042;-73
2021/03/04 12:27:53;;;;;;;13.82;5.57;;;15.60;69.10;;;;;;5020308;28;20036;-73
2021/03/04 12:30:19;;;;;;;17.00;5.63;;;15.60;68.60;;;;;;5017994;28;20038;-72
2021/03/04 12:32:45;;;;;;;17.90;5.43;;;15.80;67.80;;;;;;5022098;28;20100;-72
2021/03/04 12:35:12;;;;;;;14.55;4.05;;;15.20;65.80;;;;;;5011709;28;20044;-73
2021/03/04 12:37:39;;;;;;;13.02;4.93;;;15.20;67.20;;;;;;5022176;28;20026;-72
2021/03/04 12:40:05;;;;;;;11.73;4.43;;;15.10;66.30;;;;;;5020868;28;20047;-73
2021/03/04 12:42:31;;;;;;;13.88;4.35;;;15.00;66.10;;;;;;5019876;28;20518;-73
2021/03/04 12:44:57;;;;;;;11.48;4.13;;;15.00;65.80;;;;;;5022426;28;20037;-73
2021/03/04 12:47:23;;;;;;;11.05;4.80;;;14.90;67.60;;;;;;5021463;28;20029;-73